createdAt,value
2022-09-23T00:00:20.584Z,99.81
2022-09-23T00:01:20.593Z,99.81
2022-09-23T00:02:20.522Z,99.86
2022-09-23T00:03:20.442Z,99.86
2022-09-23T00:04:20.433Z,99.99
2022-09-23T00:05:20.425Z,99.99
2022-09-23T00:06:20.409Z,99.99
2022-09-23T00:07:20.406Z,99.99
2022-09-23T00:08:20.403Z,99.99
2022-09-23T00:09:20.386Z,99.99
2022-09-23T00:10:20.367Z,99.99
2022-09-23T00:11:20.377Z,99.99
2022-09-23T00:12:20.358Z,99.99
2022-09-23T00:13:20.338Z,99.99
2022-09-23T00:14:20.355Z,99.99
2022-09-23T00:15:20.329Z,99.99
2022-09-23T00:16:20.365Z,99.99
2022-09-23T00:17:20.399Z,99.99
2022-09-23T00:18:20.279Z,99.99
2022-09-23T00:19:20.277Z,99.99
2022-09-23T00:20:20.259Z,99.99
2022-09-23T00:21:20.271Z,99.99
2022-09-23T00:22:20.456Z,99.99
2022-09-23T00:23:20.247Z,99.99
2022-09-23T00:24:20.210Z,99.99
2022-09-23T00:25:20.218Z,99.99
2022-09-23T00:26:20.198Z,99.99
2022-09-23T00:27:20.192Z,99.99
2022-09-23T00:28:20.183Z,99.99
2022-09-23T00:29:20.172Z,99.99
2022-09-23T00:30:20.183Z,99.99
2022-09-23T00:31:20.393Z,99.99
2022-09-23T00:32:20.134Z,99.99
2022-09-23T00:33:20.181Z,99.99
2022-09-23T00:34:20.114Z,99.99
2022-09-23T00:35:20.124Z,99.99
2022-09-23T00:36:20.094Z,99.99
2022-09-23T00:37:20.084Z,99.99
2022-09-23T00:38:20.363Z,99.99
2022-09-23T00:39:20.074Z,99.99
2022-09-23T00:40:20.116Z,99.99
2022-09-23T00:41:20.075Z,99.99
2022-09-23T00:42:20.025Z,99.99
2022-09-23T00:43:20.024Z,99.99
2022-09-23T00:44:20.007Z,99.99
2022-09-23T00:45:20.002Z,99.99
2022-09-23T00:46:20.040Z,99.99
2022-09-23T00:47:19.986Z,99.99
2022-09-23T00:48:19.965Z,99.99
2022-09-23T00:49:19.968Z,99.99
2022-09-23T00:50:43.605Z,99.99
2022-09-23T00:51:19.947Z,99.99
2022-09-23T00:52:19.973Z,99.99
2022-09-23T00:53:19.925Z,99.99
2022-09-23T00:54:19.897Z,99.99
2022-09-23T00:55:19.907Z,99.99
2022-09-23T00:56:19.897Z,99.99
2022-09-23T00:57:19.903Z,99.99
2022-09-23T00:58:19.961Z,99.99
2022-09-23T00:59:19.857Z,99.99
2022-09-23T01:00:19.840Z,99.99
2022-09-23T01:01:19.898Z,99.99
2022-09-23T01:02:19.914Z,99.99
2022-09-23T01:03:19.809Z,99.99
2022-09-23T01:04:19.792Z,99.99
2022-09-23T01:05:19.790Z,99.99
2022-09-23T01:06:19.770Z,99.99
2022-09-23T01:07:19.770Z,99.99
2022-09-23T01:08:19.761Z,99.99
2022-09-23T01:09:19.772Z,99.99
2022-09-23T01:10:19.729Z,99.99
2022-09-23T01:11:19.731Z,99.99
2022-09-23T01:12:19.704Z,99.99
2022-09-23T01:13:19.704Z,99.99
2022-09-23T01:14:19.701Z,99.99
2022-09-23T01:15:19.692Z,99.99
2022-09-23T01:16:19.759Z,99.99
2022-09-23T01:17:19.661Z,99.99
2022-09-23T01:18:19.700Z,99.99
2022-09-23T01:19:19.654Z,99.99
2022-09-23T01:20:19.626Z,99.99
2022-09-23T01:21:19.615Z,99.99
2022-09-23T01:22:19.601Z,99.99
2022-09-23T01:23:19.604Z,99.99
2022-09-23T01:24:19.584Z,99.99
2022-09-23T01:25:19.594Z,99.99
2022-09-23T01:26:19.565Z,99.99
2022-09-23T01:27:19.564Z,99.99
2022-09-23T01:28:19.548Z,99.99
2022-09-23T01:29:19.544Z,99.99
2022-09-23T01:30:19.524Z,99.99
2022-09-23T01:31:19.609Z,99.99
2022-09-23T01:32:19.506Z,99.99
2022-09-23T01:33:19.498Z,99.99
2022-09-23T01:34:19.475Z,99.99
2022-09-23T01:35:19.465Z,99.99
2022-09-23T01:36:19.458Z,99.99
2022-09-23T01:37:19.688Z,99.99
2022-09-23T01:38:19.807Z,99.99
2022-09-23T01:39:19.437Z,99.99
2022-09-23T01:40:19.462Z,99.99
2022-09-23T01:41:19.408Z,99.99
2022-09-23T01:42:20.219Z,99.99
2022-09-23T01:43:19.391Z,99.99
2022-09-23T01:44:19.377Z,99.99
2022-09-23T01:45:19.370Z,99.99
2022-09-23T01:46:19.349Z,99.99
2022-09-23T01:47:19.347Z,99.99
2022-09-23T01:48:19.439Z,99.99
2022-09-23T01:49:19.329Z,99.99
2022-09-23T01:50:19.310Z,99.99
2022-09-23T01:51:19.311Z,99.99
2022-09-23T01:52:19.290Z,99.99
2022-09-23T01:53:19.289Z,99.99
2022-09-23T01:54:19.277Z,99.99
2022-09-23T01:55:19.283Z,99.99
2022-09-23T01:56:19.253Z,99.99
2022-09-23T01:57:19.232Z,99.99
2022-09-23T01:58:19.223Z,99.99
2022-09-23T01:59:19.223Z,99.99
2022-09-23T02:00:20.044Z,99.99
2022-09-23T02:01:19.258Z,99.99
2022-09-23T02:02:19.353Z,99.99
2022-09-23T02:03:19.184Z,99.99
2022-09-23T02:04:19.178Z,99.99
2022-09-23T02:05:19.160Z,99.99
2022-09-23T02:06:19.147Z,99.99
2022-09-23T02:07:19.134Z,99.99
2022-09-23T02:08:19.123Z,99.99
2022-09-23T02:09:19.114Z,99.99
2022-09-23T02:10:19.136Z,99.99
2022-09-23T02:11:19.124Z,99.99
2022-09-23T02:12:19.072Z,99.99
2022-09-23T02:13:19.075Z,99.99
2022-09-23T02:14:19.056Z,99.99
2022-09-23T02:15:19.047Z,99.99
2022-09-23T02:16:19.212Z,99.99
2022-09-23T02:17:19.027Z,99.99
2022-09-23T02:18:19.008Z,99.99
2022-09-23T02:19:19.016Z,99.99
2022-09-23T02:20:19.082Z,99.99
2022-09-23T02:21:19.004Z,99.99
2022-09-23T02:22:18.966Z,99.99
2022-09-23T02:23:18.959Z,99.99
2022-09-23T02:24:18.955Z,99.99
2022-09-23T02:25:18.937Z,99.99
2022-09-23T02:26:18.930Z,99.99
2022-09-23T02:27:18.920Z,99.99
2022-09-23T02:28:18.909Z,99.99
2022-09-23T02:29:18.890Z,99.99
2022-09-23T02:30:18.882Z,99.99
2022-09-23T02:31:18.878Z,99.99
2022-09-23T02:32:18.867Z,99.99
2022-09-23T02:33:18.850Z,99.99
2022-09-23T02:34:18.938Z,99.99
2022-09-23T02:35:18.834Z,99.99
2022-09-23T02:36:18.818Z,99.99
2022-09-23T02:37:18.820Z,99.99
2022-09-23T02:38:18.792Z,99.99
2022-09-23T02:39:18.792Z,99.99
2022-09-23T02:40:18.968Z,99.99
2022-09-23T02:41:18.773Z,99.99
2022-09-23T02:42:18.752Z,99.99
2022-09-23T02:43:18.753Z,99.99
2022-09-23T02:44:18.731Z,99.99
2022-09-23T02:45:18.733Z,99.99
2022-09-23T02:46:18.783Z,99.99
2022-09-23T02:47:18.713Z,99.99
2022-09-23T02:48:18.713Z,99.99
2022-09-23T02:49:18.684Z,99.99
2022-09-23T02:50:18.673Z,99.99
2022-09-23T02:51:18.666Z,99.99
2022-09-23T02:52:18.665Z,99.99
2022-09-23T02:53:18.648Z,99.99
2022-09-23T02:54:18.636Z,99.99
2022-09-23T02:55:18.619Z,99.99
2022-09-23T02:56:18.616Z,99.99
2022-09-23T02:57:18.616Z,99.99
2022-09-23T02:58:18.585Z,99.99
2022-09-23T02:59:18.897Z,99.99
2022-09-23T03:00:18.567Z,99.99
2022-09-23T03:01:18.609Z,99.99
2022-09-23T03:02:18.591Z,99.99
2022-09-23T03:03:18.538Z,99.99
2022-09-23T03:04:18.518Z,99.99
2022-09-23T03:05:18.509Z,99.99
2022-09-23T03:06:18.513Z,99.99
2022-09-23T03:07:18.496Z,99.99
2022-09-23T03:08:18.478Z,99.99
2022-09-23T03:09:18.469Z,99.99
2022-09-23T03:10:18.471Z,99.99
2022-09-23T03:11:18.449Z,99.99
2022-09-23T03:12:18.437Z,99.99
2022-09-23T03:13:18.438Z,99.99
2022-09-23T03:14:18.629Z,99.99
2022-09-23T03:15:18.411Z,99.99
2022-09-23T03:16:18.432Z,99.99
2022-09-23T03:17:18.388Z,99.99
2022-09-23T03:18:19.178Z,99.99
2022-09-23T03:19:18.372Z,99.99
2022-09-23T03:20:18.349Z,99.99
2022-09-23T03:21:18.362Z,99.99
2022-09-23T03:22:18.334Z,99.99
2022-09-23T03:23:18.342Z,99.99
2022-09-23T03:24:18.311Z,99.99
2022-09-23T03:25:18.305Z,99.99
2022-09-23T03:26:18.292Z,99.99
2022-09-23T03:27:18.282Z,99.99
2022-09-23T03:28:18.272Z,99.99
2022-09-23T03:29:18.263Z,99.99
2022-09-23T03:30:18.250Z,99.99
2022-09-23T03:31:18.333Z,99.99
2022-09-23T03:32:18.233Z,99.99
2022-09-23T03:33:18.254Z,99.99
2022-09-23T03:34:18.206Z,99.99
2022-09-23T03:35:19.002Z,99.99
2022-09-23T03:36:18.183Z,99.99
2022-09-23T03:37:18.167Z,99.99
2022-09-23T03:38:19.115Z,99.99
2022-09-23T03:39:18.151Z,99.99
2022-09-23T03:40:18.201Z,99.99
2022-09-23T03:41:18.162Z,99.99
2022-09-23T03:42:18.597Z,99.99
2022-09-23T03:43:18.116Z,99.99
2022-09-23T03:44:18.096Z,99.99
2022-09-23T03:45:18.078Z,99.99
2022-09-23T03:46:18.164Z,99.99
2022-09-23T03:47:18.067Z,99.99
2022-09-23T03:48:18.066Z,99.99
2022-09-23T03:49:18.580Z,99.99
2022-09-23T03:50:18.037Z,99.99
2022-09-23T03:51:18.025Z,99.99
2022-09-23T03:52:18.016Z,99.99
2022-09-23T03:53:18.000Z,99.99
2022-09-23T03:54:17.990Z,99.99
2022-09-23T03:55:17.970Z,99.99
2022-09-23T03:56:17.969Z,99.99
2022-09-23T03:57:17.950Z,99.99
2022-09-23T03:58:18.021Z,99.99
2022-09-23T03:59:17.939Z,99.99
2022-09-23T04:00:17.931Z,99.99
2022-09-23T04:01:18.049Z,99.99
2022-09-23T04:02:17.976Z,99.99
2022-09-23T04:03:17.892Z,99.99
2022-09-23T04:04:17.884Z,99.99
2022-09-23T04:05:17.870Z,99.99
2022-09-23T04:06:17.863Z,99.99
2022-09-23T04:07:17.845Z,99.99
2022-09-23T04:08:17.843Z,99.99
2022-09-23T04:09:17.823Z,99.99
2022-09-23T04:10:17.822Z,99.99
2022-09-23T04:11:17.823Z,99.99
2022-09-23T04:12:18.133Z,99.99
2022-09-23T04:13:17.783Z,99.99
2022-09-23T04:14:17.774Z,99.99
2022-09-23T04:15:17.763Z,99.99
2022-09-23T04:16:17.833Z,99.99
2022-09-23T04:17:17.743Z,99.99
2022-09-23T04:18:17.736Z,99.99
2022-09-23T04:19:17.725Z,99.99
2022-09-23T04:20:17.715Z,99.99
2022-09-23T04:21:17.713Z,99.99
2022-09-23T04:22:17.705Z,99.99
2022-09-23T04:23:17.676Z,99.99
2022-09-23T04:24:17.676Z,99.99
2022-09-23T04:25:17.656Z,99.99
2022-09-23T04:26:17.836Z,99.99
2022-09-23T04:27:17.637Z,99.99
2022-09-23T04:28:17.635Z,99.99
2022-09-23T04:29:17.607Z,99.99
2022-09-23T04:30:17.616Z,99.99
2022-09-23T04:31:17.666Z,99.99
2022-09-23T04:32:17.596Z,99.99
2022-09-23T04:33:17.576Z,99.99
2022-09-23T04:34:17.570Z,99.99
2022-09-23T04:35:17.698Z,99.99
2022-09-23T04:36:17.542Z,99.99
2022-09-23T04:37:17.528Z,99.99
2022-09-23T04:38:17.527Z,99.99
2022-09-23T04:39:17.514Z,99.99
2022-09-23T04:40:17.570Z,99.99
2022-09-23T04:41:17.503Z,99.99
2022-09-23T04:42:17.482Z,99.99
2022-09-23T04:43:17.462Z,99.99
2022-09-23T04:44:17.470Z,99.99
2022-09-23T04:45:17.541Z,99.99
2022-09-23T04:46:17.485Z,99.99
2022-09-23T04:47:17.421Z,99.99
2022-09-23T04:48:17.412Z,99.99
2022-09-23T04:49:17.458Z,99.99
2022-09-23T04:50:17.393Z,99.99
2022-09-23T04:51:17.381Z,99.99
2022-09-23T04:52:17.372Z,99.99
2022-09-23T04:53:17.360Z,99.99
2022-09-23T04:54:17.353Z,99.99
2022-09-23T04:55:17.344Z,99.99
2022-09-23T04:56:17.334Z,99.99
2022-09-23T04:57:17.344Z,99.99
2022-09-23T04:58:18.112Z,99.99
2022-09-23T04:59:17.314Z,99.99
2022-09-23T05:00:17.292Z,99.99
2022-09-23T05:01:17.399Z,99.99
2022-09-23T05:02:17.352Z,99.99
2022-09-23T05:03:17.255Z,99.99
2022-09-23T05:04:17.260Z,99.99
2022-09-23T05:05:17.234Z,99.99
2022-09-23T05:06:17.225Z,99.99
2022-09-23T05:07:17.213Z,99.99
2022-09-23T05:08:17.509Z,99.99
2022-09-23T05:09:17.197Z,99.99
2022-09-23T05:10:17.187Z,99.99
2022-09-23T05:11:17.166Z,99.99
2022-09-23T05:12:17.471Z,99.99
2022-09-23T05:13:17.154Z,99.99
2022-09-23T05:14:17.155Z,99.99
2022-09-23T05:15:17.238Z,99.99
2022-09-23T05:16:17.192Z,99.99
2022-09-23T05:17:17.167Z,99.99
2022-09-23T05:18:20.754Z,99.99
2022-09-23T05:19:17.089Z,99.99
2022-09-23T05:20:17.188Z,99.99
2022-09-23T05:21:17.179Z,99.99
2022-09-23T05:22:17.059Z,99.99
2022-09-23T05:23:17.040Z,99.99
2022-09-23T05:24:17.830Z,99.99
2022-09-23T05:25:17.040Z,99.99
2022-09-23T05:26:17.250Z,99.99
2022-09-23T05:27:16.997Z,99.99
2022-09-23T05:28:16.990Z,99.99
2022-09-23T05:29:16.990Z,99.99
2022-09-23T05:30:16.981Z,99.99
2022-09-23T05:31:20.135Z,99.99
2022-09-23T05:32:16.951Z,99.99
2022-09-23T05:33:16.972Z,99.99
2022-09-23T05:34:16.932Z,99.99
2022-09-23T05:35:16.963Z,99.99
2022-09-23T05:36:16.923Z,99.99
2022-09-23T05:37:16.942Z,99.99
2022-09-23T05:38:16.895Z,99.99
2022-09-23T05:39:16.873Z,99.99
2022-09-23T05:40:17.106Z,99.99
2022-09-23T05:41:16.863Z,99.99
2022-09-23T05:42:16.843Z,99.99
2022-09-23T05:43:17.641Z,99.99
2022-09-23T05:44:16.843Z,99.99
2022-09-23T05:45:17.624Z,99.99
2022-09-23T05:46:16.862Z,99.99
2022-09-23T05:47:16.794Z,99.99
2022-09-23T05:48:16.785Z,99.99
2022-09-23T05:49:16.777Z,99.99
2022-09-23T05:50:16.955Z,99.99
2022-09-23T05:51:16.745Z,99.99
2022-09-23T05:52:16.773Z,99.99
2022-09-23T05:53:17.527Z,99.99
2022-09-23T05:54:16.727Z,99.99
2022-09-23T05:55:16.729Z,99.99
2022-09-23T05:56:16.713Z,99.99
2022-09-23T05:57:16.687Z,99.99
2022-09-23T05:58:16.675Z,99.99
2022-09-23T05:59:16.669Z,99.99
2022-09-23T06:00:16.658Z,99.99
2022-09-23T06:01:16.653Z,99.99
2022-09-23T06:02:16.697Z,99.99
2022-09-23T06:03:16.647Z,99.99
2022-09-23T06:04:16.609Z,99.99
2022-09-23T06:05:16.837Z,99.99
2022-09-23T06:06:16.591Z,99.99
2022-09-23T06:07:16.649Z,99.99
2022-09-23T06:08:16.569Z,99.99
2022-09-23T06:09:16.559Z,99.99
2022-09-23T06:10:17.267Z,99.99
2022-09-23T06:11:16.541Z,99.99
2022-09-23T06:12:16.521Z,99.99
2022-09-23T06:13:16.633Z,99.99
2022-09-23T06:14:16.514Z,99.99
2022-09-23T06:15:17.301Z,99.99
2022-09-23T06:16:17.231Z,99.99
2022-09-23T06:17:16.462Z,99.99
2022-09-23T06:18:16.483Z,99.99
2022-09-23T06:19:16.448Z,99.99
2022-09-23T06:20:16.451Z,99.99
2022-09-23T06:21:16.433Z,99.99
2022-09-23T06:22:16.421Z,99.99
2022-09-23T06:23:16.403Z,99.99
2022-09-23T06:24:20.595Z,99.99
2022-09-23T06:25:18.204Z,99.99
2022-09-23T06:26:17.194Z,99.99
2022-09-23T06:27:16.374Z,99.99
2022-09-23T06:28:16.356Z,99.99
2022-09-23T06:29:17.175Z,99.99
2022-09-23T06:30:16.333Z,99.99
2022-09-23T06:31:16.395Z,99.99
2022-09-23T06:32:16.325Z,99.99
2022-09-23T06:33:18.078Z,99.99
2022-09-23T06:34:16.653Z,99.99
2022-09-23T06:35:26.193Z,99.99
2022-09-23T06:36:33.655Z,99.99
2022-09-23T06:37:20.444Z,99.99
2022-09-23T06:38:16.357Z,99.99
2022-09-23T06:39:16.266Z,99.99
2022-09-23T06:40:16.309Z,99.99
2022-09-23T06:41:16.207Z,99.99
2022-09-23T06:42:16.215Z,99.99
2022-09-23T06:43:16.196Z,99.99
2022-09-23T06:44:16.193Z,99.99
2022-09-23T06:45:16.189Z,99.99
2022-09-23T06:46:16.207Z,99.99
2022-09-23T06:47:16.147Z,99.99
2022-09-23T06:48:16.148Z,99.99
2022-09-23T06:49:16.120Z,99.99
2022-09-23T06:50:16.119Z,99.76
2022-09-23T06:51:16.100Z,99.55
2022-09-23T06:52:16.098Z,99.55
2022-09-23T06:53:16.094Z,99.51
2022-09-23T06:54:16.072Z,99.05
2022-09-23T06:55:16.872Z,97.92
2022-09-23T06:56:16.063Z,98.13
2022-09-23T06:57:16.032Z,97.78
2022-09-23T06:58:16.033Z,95.73
2022-09-23T06:59:16.029Z,96.10
2022-09-23T07:00:16.015Z,95.95
2022-09-23T07:01:16.142Z,94.73
2022-09-23T07:02:16.096Z,94.27
2022-09-23T07:03:15.982Z,92.54
2022-09-23T07:04:15.983Z,93.92
2022-09-23T07:05:16.762Z,92.59
2022-09-23T07:06:15.943Z,91.53
2022-09-23T07:07:15.924Z,90.31
2022-09-23T07:08:15.916Z,90.67
2022-09-23T07:09:17.365Z,91.49
2022-09-23T07:10:15.895Z,90.06
2022-09-23T07:11:15.885Z,90.73
2022-09-23T07:12:15.875Z,89.92
2022-09-23T07:13:16.481Z,89.71
2022-09-23T07:14:15.865Z,89.06
2022-09-23T07:15:16.678Z,89.36
2022-09-23T07:16:15.903Z,89.26
2022-09-23T07:17:15.818Z,88.51
2022-09-23T07:18:15.819Z,89.01
2022-09-23T07:19:15.797Z,88.92
2022-09-23T07:20:15.789Z,88.81
2022-09-23T07:21:16.020Z,88.40
2022-09-23T07:22:15.769Z,89.22
2022-09-23T07:23:15.769Z,88.71
2022-09-23T07:24:15.759Z,87.90
2022-09-23T07:25:15.764Z,87.18
2022-09-23T07:26:16.540Z,88.00
2022-09-23T07:27:15.710Z,87.85
2022-09-23T07:28:15.720Z,86.98
2022-09-23T07:29:15.693Z,87.38
2022-09-23T07:30:23.429Z,87.18
2022-09-23T07:31:27.433Z,86.37
2022-09-23T07:32:16.772Z,87.29
2022-09-23T07:33:29.673Z,87.18
2022-09-23T07:34:16.642Z,86.37
2022-09-23T07:35:16.520Z,87.69
2022-09-23T07:36:15.942Z,88.10
2022-09-23T07:37:15.603Z,87.29
2022-09-23T07:38:15.603Z,86.57
2022-09-23T07:39:16.134Z,87.38
2022-09-23T07:40:15.630Z,88.20
2022-09-23T07:41:15.565Z,87.45
2022-09-23T07:42:15.555Z,86.74
2022-09-23T07:43:15.544Z,86.02
2022-09-23T07:44:15.976Z,86.39
2022-09-23T07:45:15.534Z,86.80
2022-09-23T07:46:15.557Z,85.78
2022-09-23T07:47:15.505Z,85.37
2022-09-23T07:48:15.488Z,85.74
2022-09-23T07:49:16.299Z,86.15
2022-09-23T07:50:15.470Z,84.21
2022-09-23T07:51:15.466Z,84.31
2022-09-23T07:52:15.447Z,85.09
2022-09-23T07:53:15.708Z,83.76
2022-09-23T07:54:15.477Z,83.62
2022-09-23T07:55:18.889Z,82.20
2022-09-23T07:56:16.421Z,82.47
2022-09-23T07:57:15.419Z,83.14
2022-09-23T07:58:15.432Z,82.33
2022-09-23T07:59:15.477Z,82.59
2022-09-23T08:00:15.358Z,81.68
2022-09-23T08:01:15.403Z,81.58
2022-09-23T08:02:15.405Z,79.45
2022-09-23T08:03:15.360Z,79.82
2022-09-23T08:04:15.311Z,79.92
2022-09-23T08:05:15.311Z,80.12
2022-09-23T08:06:15.493Z,79.61
2022-09-23T08:07:15.297Z,79.58
2022-09-23T08:08:15.276Z,77.65
2022-09-23T08:09:15.269Z,79.07
2022-09-23T08:10:15.243Z,78.33
2022-09-23T08:11:15.243Z,78.63
2022-09-23T08:12:16.202Z,79.24
2022-09-23T08:13:16.174Z,78.59
2022-09-23T08:14:15.226Z,79.20
2022-09-23T08:15:15.247Z,79.50
2022-09-23T08:16:15.363Z,77.37
2022-09-23T08:17:15.184Z,78.93
2022-09-23T08:18:15.168Z,79.03
2022-09-23T08:19:15.167Z,79.64
2022-09-23T08:20:15.154Z,80.11
2022-09-23T08:21:15.146Z,79.60
2022-09-23T08:22:15.127Z,79.13
2022-09-23T08:23:15.117Z,79.74
2022-09-23T08:24:15.115Z,81.46
2022-09-23T08:25:15.117Z,80.25
2022-09-23T08:26:21.159Z,80.25
2022-09-23T08:27:16.080Z,78.69
2022-09-23T08:28:15.069Z,79.91
2022-09-23T08:29:15.860Z,78.28
2022-09-23T08:30:15.029Z,78.66
2022-09-23T08:31:15.081Z,77.98
2022-09-23T08:32:15.011Z,76.53
2022-09-23T08:33:17.473Z,76.83
2022-09-23T08:34:15.000Z,76.53
2022-09-23T08:35:14.990Z,76.77
2022-09-23T08:36:15.439Z,77.28
2022-09-23T08:37:14.961Z,77.98
2022-09-23T08:38:14.950Z,77.68
2022-09-23T08:39:15.042Z,75.55
2022-09-23T08:40:14.964Z,76.26
2022-09-23T08:41:14.922Z,77.37
2022-09-23T08:42:15.721Z,77.88
2022-09-23T08:43:14.983Z,77.17
2022-09-23T08:44:14.884Z,77.07
2022-09-23T08:45:14.883Z,77.28
2022-09-23T08:46:14.899Z,77.88
2022-09-23T08:47:15.852Z,75.85
2022-09-23T08:48:14.843Z,76.36
2022-09-23T08:49:14.843Z,76.77
2022-09-23T08:50:14.826Z,76.46
2022-09-23T08:51:14.826Z,76.56
2022-09-23T08:52:14.848Z,77.07
2022-09-23T08:53:14.797Z,77.37
2022-09-23T08:54:14.776Z,77.98
2022-09-23T08:55:14.777Z,78.19
2022-09-23T08:56:14.759Z,77.88
2022-09-23T08:57:14.777Z,78.75
2022-09-23T08:58:24.858Z,78.66
2022-09-23T08:59:15.729Z,77.24
2022-09-23T09:00:14.709Z,76.23
2022-09-23T09:01:14.763Z,75.92
2022-09-23T09:02:15.548Z,77.34
2022-09-23T09:03:14.797Z,76.53
2022-09-23T09:04:14.676Z,76.12
2022-09-23T09:05:14.661Z,76.83
2022-09-23T09:06:14.648Z,77.14
2022-09-23T09:08:15.633Z,77.24
2022-09-23T09:09:14.829Z,75.92
2022-09-23T09:10:14.602Z,76.63
2022-09-23T09:11:14.615Z,76.83
2022-09-23T09:12:14.583Z,77.71
2022-09-23T09:13:14.584Z,76.39
2022-09-23T09:14:14.561Z,76.59
2022-09-23T09:15:14.554Z,75.24
2022-09-23T09:16:14.571Z,74.03
2022-09-23T09:17:14.544Z,74.43
2022-09-23T09:18:14.546Z,74.43
2022-09-23T09:19:14.545Z,74.84
2022-09-23T09:20:14.503Z,75.04
2022-09-23T09:21:14.494Z,74.50
2022-09-23T09:22:14.496Z,74.60
2022-09-23T09:23:14.476Z,75.21
2022-09-23T09:24:14.455Z,73.59
2022-09-23T09:25:14.589Z,74.60
2022-09-23T09:26:14.439Z,74.57
2022-09-23T09:27:14.427Z,73.15
2022-09-23T09:28:14.410Z,72.58
2022-09-23T09:29:34.446Z,73.49
2022-09-23T09:30:15.396Z,74.03
2022-09-23T09:31:15.381Z,74.60
2022-09-23T09:32:14.371Z,74.30
2022-09-23T09:33:14.362Z,72.75
2022-09-23T09:34:14.346Z,72.34
2022-09-23T09:35:14.340Z,72.64
2022-09-23T09:36:14.383Z,73.86
2022-09-23T09:37:14.322Z,73.66
2022-09-23T09:38:14.303Z,72.55
2022-09-23T09:39:14.300Z,72.48
2022-09-23T09:40:14.327Z,72.78
2022-09-23T09:41:14.284Z,72.99
2022-09-23T09:42:14.273Z,73.28
2022-09-23T09:43:14.253Z,73.59
2022-09-23T09:44:14.243Z,74.10
2022-09-23T09:45:14.244Z,72.95
2022-09-23T09:46:14.292Z,73.15
2022-09-23T09:47:14.215Z,73.96
2022-09-23T09:48:14.208Z,72.81
2022-09-23T09:49:14.186Z,72.51
2022-09-23T09:50:14.166Z,73.28
2022-09-23T09:51:14.164Z,71.87
2022-09-23T09:52:14.147Z,71.06
2022-09-23T09:53:14.104Z,72.68
2022-09-23T09:54:14.084Z,72.54
2022-09-23T09:55:14.073Z,72.04
2022-09-23T09:56:14.053Z,72.24
2022-09-23T09:57:14.043Z,70.09
2022-09-23T09:58:14.031Z,69.08
2022-09-23T09:59:14.033Z,68.74
2022-09-23T10:00:14.007Z,68.34
2022-09-23T10:01:15.013Z,68.44
2022-09-23T10:02:13.993Z,68.71
2022-09-23T10:03:13.992Z,67.30
2022-09-23T10:04:14.039Z,67.60
2022-09-23T10:05:13.964Z,66.33
2022-09-23T10:06:13.947Z,67.80
2022-09-23T10:07:13.938Z,67.00
2022-09-23T10:08:13.921Z,66.19
2022-09-23T10:09:13.942Z,65.96
2022-09-23T10:10:22.438Z,65.66
2022-09-23T10:11:14.896Z,65.83
2022-09-23T10:12:14.124Z,64.62
2022-09-23T10:13:14.063Z,62.51
2022-09-23T10:14:13.864Z,62.34
2022-09-23T10:15:13.855Z,64.52
2022-09-23T10:16:13.862Z,60.93
2022-09-23T10:17:13.842Z,62.46
2022-09-23T10:18:13.805Z,67.00
2022-09-23T10:19:13.806Z,65.89
2022-09-23T10:20:13.788Z,66.36
2022-09-23T10:21:13.785Z,64.92
2022-09-23T10:22:13.775Z,64.92
2022-09-23T10:23:13.766Z,63.04
2022-09-23T10:24:13.748Z,62.84
2022-09-23T10:25:13.741Z,63.45
2022-09-23T10:26:13.728Z,63.82
2022-09-23T10:27:14.428Z,63.14
2022-09-23T10:28:13.719Z,62.04
2022-09-23T10:29:13.712Z,63.75
2022-09-23T10:30:13.690Z,62.34
2022-09-23T10:31:13.759Z,63.65
2022-09-23T10:32:13.671Z,63.92
2022-09-23T10:33:13.652Z,64.62
2022-09-23T10:34:13.661Z,63.68
2022-09-23T10:35:13.636Z,61.44
2022-09-23T10:36:14.580Z,62.55
2022-09-23T10:37:13.604Z,62.65
2022-09-23T10:38:13.606Z,63.82
2022-09-23T10:39:13.647Z,62.29
2022-09-23T10:40:13.632Z,60.08
2022-09-23T10:41:13.570Z,61.18
2022-09-23T10:42:13.557Z,62.86
2022-09-23T10:43:13.549Z,62.36
2022-09-23T10:44:13.641Z,61.96
2022-09-23T10:45:13.528Z,60.52
2022-09-23T10:46:13.572Z,59.75
2022-09-23T10:47:13.694Z,60.55
2022-09-23T10:48:13.494Z,59.58
2022-09-23T10:49:13.485Z,59.67
2022-09-23T10:50:13.635Z,60.38
2022-09-23T10:51:13.467Z,61.38
2022-09-23T10:52:13.465Z,60.58
2022-09-23T10:53:13.468Z,58.67
2022-09-23T10:54:13.427Z,59.38
2022-09-23T10:55:13.420Z,59.98
2022-09-23T10:56:13.404Z,62.19
2022-09-23T10:57:13.412Z,59.45
2022-09-23T10:58:14.132Z,59.62
2022-09-23T10:59:13.387Z,59.92
2022-09-23T11:00:13.365Z,58.81
2022-09-23T11:01:13.486Z,58.31
2022-09-23T11:02:13.363Z,58.31
2022-09-23T11:03:14.156Z,58.09
2022-09-23T11:04:13.554Z,59.79
2022-09-23T11:05:13.318Z,59.77
2022-09-23T11:06:13.640Z,56.93
2022-09-23T11:07:14.114Z,54.82
2022-09-23T11:08:13.289Z,55.75
2022-09-23T11:09:13.281Z,56.38
2022-09-23T11:10:29.172Z,55.68
2022-09-23T11:11:14.262Z,56.48
2022-09-23T11:12:13.542Z,56.28
2022-09-23T11:13:13.234Z,56.38
2022-09-23T11:14:13.223Z,56.18
2022-09-23T11:15:13.216Z,58.46
2022-09-23T11:16:13.219Z,57.46
2022-09-23T11:17:13.245Z,56.73
2022-09-23T11:18:13.179Z,57.03
2022-09-23T11:19:13.170Z,56.60
2022-09-23T11:20:13.188Z,55.90
2022-09-23T11:21:13.235Z,55.90
2022-09-23T11:22:13.138Z,55.80
2022-09-23T11:23:13.143Z,58.30
2022-09-23T11:24:13.114Z,56.37
2022-09-23T11:25:13.255Z,55.30
2022-09-23T11:26:13.094Z,56.27
2022-09-23T11:27:13.085Z,54.87
2022-09-23T11:28:13.085Z,56.65
2022-09-23T11:29:13.411Z,58.48
2022-09-23T11:30:14.012Z,55.07
2022-09-23T11:31:13.080Z,57.50
2022-09-23T11:32:13.059Z,56.37
2022-09-23T11:33:13.039Z,57.68
2022-09-23T11:34:13.099Z,56.67
2022-09-23T11:35:13.008Z,58.85
2022-09-23T11:36:12.992Z,56.57
2022-09-23T11:37:13.082Z,61.08
2022-09-23T11:38:12.970Z,57.05
2022-09-23T11:39:12.963Z,55.44
2022-09-23T11:40:13.140Z,56.24
2022-09-23T11:41:12.947Z,57.32
2022-09-23T11:42:12.936Z,55.65
2022-09-23T11:43:12.926Z,57.15
2022-09-23T11:44:13.146Z,55.72
2022-09-23T11:45:12.897Z,58.52
2022-09-23T11:46:12.930Z,55.59
2022-09-23T11:47:13.687Z,54.60
2022-09-23T11:48:12.859Z,55.19
2022-09-23T11:49:12.860Z,55.79
2022-09-23T11:50:13.002Z,54.92
2022-09-23T11:51:12.840Z,55.49
2022-09-23T11:52:12.871Z,55.47
2022-09-23T11:53:12.831Z,56.27
2022-09-23T11:54:15.190Z,55.07
2022-09-23T11:55:20.772Z,55.97
2022-09-23T11:56:15.302Z,57.04
2022-09-23T11:57:13.595Z,55.34
2022-09-23T11:58:23.408Z,56.04
2022-09-23T11:59:13.962Z,55.17
2022-09-23T12:00:12.745Z,57.46
2022-09-23T12:01:12.747Z,55.19
2022-09-23T12:02:20.398Z,56.62
2022-09-23T12:03:14.212Z,56.42
2022-09-23T12:04:19.808Z,57.82
2022-09-23T12:05:13.789Z,55.35
2022-09-23T12:06:12.697Z,57.48
2022-09-23T12:07:12.668Z,57.37
2022-09-23T12:08:12.668Z,56.67
2022-09-23T12:09:12.758Z,58.07
2022-09-23T12:10:12.653Z,57.78
2022-09-23T12:11:12.622Z,57.55
2022-09-23T12:12:12.621Z,56.72
2022-09-23T12:13:12.609Z,55.12
2022-09-23T12:14:12.593Z,56.22
2022-09-23T12:15:13.375Z,56.22
2022-09-23T12:16:13.426Z,56.55
2022-09-23T12:17:12.556Z,58.42
2022-09-23T12:18:12.557Z,55.42
2022-09-23T12:19:12.542Z,56.79
2022-09-23T12:20:12.537Z,56.59
2022-09-23T12:21:27.453Z,54.90
2022-09-23T12:22:13.528Z,55.42
2022-09-23T12:23:12.499Z,55.62
2022-09-23T12:24:17.070Z,57.67
2022-09-23T12:25:13.483Z,56.27
2022-09-23T12:26:12.480Z,54.44
2022-09-23T12:27:12.451Z,56.14
2022-09-23T12:28:12.493Z,56.14
2022-09-23T12:29:12.432Z,54.54
2022-09-23T12:30:12.440Z,56.24
2022-09-23T12:31:12.465Z,55.64
2022-09-23T12:32:12.423Z,54.67
2022-09-23T12:33:12.391Z,54.97
2022-09-23T12:34:12.386Z,54.72
2022-09-23T12:35:12.404Z,57.24
2022-09-23T12:36:12.367Z,58.98
2022-09-23T12:37:12.356Z,58.45
2022-09-23T12:38:12.363Z,56.02
2022-09-23T12:39:12.340Z,56.22
2022-09-23T12:40:12.413Z,56.82
2022-09-23T12:41:12.310Z,57.29
2022-09-23T12:42:12.310Z,54.79
2022-09-23T12:43:12.281Z,55.87
2022-09-23T12:44:12.283Z,54.27
2022-09-23T12:45:12.262Z,55.44
2022-09-23T12:46:12.390Z,53.72
2022-09-23T12:47:12.252Z,54.24
2022-09-23T12:48:12.250Z,55.64
2022-09-23T12:49:12.225Z,54.14
2022-09-23T12:50:17.085Z,56.91
2022-09-23T12:51:13.211Z,54.52
2022-09-23T12:52:13.005Z,54.29
2022-09-23T12:53:12.185Z,52.99